UAL1345 KIAH-KPBI
Flight info
| Callsign | UAL1345 |
|---|---|
| Flight time | 1h 58m |
| Altitude | 35000 |
| Route | MMUGS4 LLA DCT LEV Y290 GAWKS VUUDU1 |
| Aircraft | B739/M-SDE2E3FGHIRWXY/LB1 |
Departure
| Time | 2026-04-15 06:08 |
|---|---|
| Airport | George Bush Intercontinental Airport (KIAH) |
Arrival
| Time | 2026-04-15 08:06 |
|---|---|
| Airport | Palm Beach International Airport (KPBI) |
| Time | Latitude | Longitude | Altitude | Speed | Heading |
|---|---|---|---|---|---|
| 2026-04-15 05:53 | 29.98852 | -95.34104 | 105 ft | 0 kts | 240° |
| 2026-04-15 05:59 | 29.98853 | -95.34102 | 106 ft | 3 kts | 240° |
| 2026-04-15 05:59 | 29.98866 | -95.34075 | 104 ft | 4 kts | 241° |
| 2026-04-15 05:59 | 29.98874 | -95.34056 | 105 ft | 2 kts | 250° |
| 2026-04-15 05:59 | 29.98877 | -95.34043 | 106 ft | 2 kts | 266° |
| 2026-04-15 06:00 | 29.98877 | -95.34031 | 106 ft | 2 kts | 272° |
| 2026-04-15 06:00 | 29.98877 | -95.34029 | 106 ft | 0 kts | 272° |
| 2026-04-15 06:02 | 29.98879 | -95.34036 | 106 ft | 2 kts | 297° |
| 2026-04-15 06:02 | 29.98908 | -95.34040 | 105 ft | 9 kts | 356° |
| 2026-04-15 06:02 | 29.99002 | -95.34041 | 106 ft | 18 kts | 0° |
| 2026-04-15 06:02 | 29.99085 | -95.34067 | 106 ft | 8 kts | 290° |
| 2026-04-15 06:03 | 29.99088 | -95.34133 | 106 ft | 8 kts | 269° |
| 2026-04-15 06:03 | 29.99087 | -95.34204 | 106 ft | 10 kts | 269° |
| 2026-04-15 06:03 | 29.99085 | -95.34305 | 106 ft | 15 kts | 269° |
| 2026-04-15 06:03 | 29.99085 | -95.34442 | 106 ft | 19 kts | 270° |
| 2026-04-15 06:04 | 29.99085 | -95.34613 | 106 ft | 23 kts | 270° |
| 2026-04-15 06:04 | 29.99084 | -95.34795 | 106 ft | 23 kts | 270° |
| 2026-04-15 06:04 | 29.99088 | -95.34975 | 106 ft | 22 kts | 273° |
| 2026-04-15 06:04 | 29.99090 | -95.35149 | 106 ft | 21 kts | 269° |
| 2026-04-15 06:05 | 29.99089 | -95.35311 | 106 ft | 19 kts | 270° |
| 2026-04-15 06:05 | 29.99081 | -95.35452 | 106 ft | 14 kts | 241° |
| 2026-04-15 06:05 | 29.98995 | -95.35485 | 106 ft | 13 kts | 180° |
| 2026-04-15 06:05 | 29.98911 | -95.35511 | 106 ft | 12 kts | 222° |
| 2026-04-15 06:06 | 29.98866 | -95.35594 | 105 ft | 12 kts | 242° |
| 2026-04-15 06:06 | 29.98827 | -95.35681 | 105 ft | 12 kts | 242° |
| 2026-04-15 06:06 | 29.98785 | -95.35758 | 108 ft | 8 kts | 214° |
| 2026-04-15 06:06 | 29.98725 | -95.35747 | 108 ft | 10 kts | 146° |
| 2026-04-15 06:07 | 29.98623 | -95.35685 | 107 ft | 38 kts | 152° |
| 2026-04-15 06:07 | 29.98186 | -95.35418 | 106 ft | 102 kts | 152° |
| 2026-04-15 06:07 | 29.97400 | -95.34937 | 106 ft | 152 kts | 152° |
| 2026-04-15 06:07 | 29.96400 | -95.34317 | 411 ft | 168 kts | 152° |
| 2026-04-15 06:08 | 29.95421 | -95.33613 | 1113 ft | 163 kts | 139° |
| 2026-04-15 06:08 | 29.94747 | -95.32582 | 1745 ft | 162 kts | 132° |
| 2026-04-15 06:08 | 29.94041 | -95.31508 | 2095 ft | 179 kts | 133° |
| 2026-04-15 06:08 | 29.93227 | -95.30302 | 2294 ft | 202 kts | 133° |
| 2026-04-15 06:09 | 29.92312 | -95.28959 | 2469 ft | 224 kts | 132° |
| 2026-04-15 06:09 | 29.91303 | -95.27483 | 2811 ft | 242 kts | 132° |
| 2026-04-15 06:09 | 29.90244 | -95.25939 | 3482 ft | 247 kts | 132° |
| 2026-04-15 06:09 | 29.89164 | -95.24367 | 3985 ft | 250 kts | 132° |
| 2026-04-15 06:10 | 29.88126 | -95.22788 | 4620 ft | 255 kts | 129° |
| 2026-04-15 06:10 | 29.87230 | -95.21340 | 5144 ft | 261 kts | 129° |
| 2026-04-15 06:10 | 29.86171 | -95.19618 | 5818 ft | 266 kts | 129° |
| 2026-04-15 06:10 | 29.85087 | -95.17866 | 6471 ft | 271 kts | 129° |
| 2026-04-15 06:11 | 29.83982 | -95.16087 | 7108 ft | 274 kts | 129° |
| 2026-04-15 06:11 | 29.82877 | -95.14277 | 7772 ft | 278 kts | 124° |
| 2026-04-15 06:11 | 29.82287 | -95.12135 | 8396 ft | 288 kts | 98° |
| 2026-04-15 06:11 | 29.82177 | -95.09820 | 9069 ft | 291 kts | 95° |
| 2026-04-15 06:12 | 29.82105 | -95.07479 | 9711 ft | 294 kts | 95° |
| 2026-04-15 06:12 | 29.82027 | -95.05113 | 10312 ft | 299 kts | 95° |
| 2026-04-15 06:12 | 29.81934 | -95.02644 | 10491 ft | 319 kts | 95° |
| 2026-04-15 06:12 | 29.81829 | -95.00048 | 10647 ft | 338 kts | 95° |
| 2026-04-15 06:13 | 29.81669 | -94.97294 | 10889 ft | 350 kts | 99° |
| 2026-04-15 06:13 | 29.81284 | -94.94499 | 11354 ft | 355 kts | 102° |
| 2026-04-15 06:13 | 29.80819 | -94.91697 | 11904 ft | 358 kts | 103° |
| 2026-04-15 06:13 | 29.80342 | -94.88870 | 12463 ft | 361 kts | 102° |
| 2026-04-15 06:14 | 29.79872 | -94.86018 | 13021 ft | 364 kts | 102° |
| 2026-04-15 06:14 | 29.79409 | -94.83132 | 13576 ft | 368 kts | 101° |
| 2026-04-15 06:14 | 29.78952 | -94.80223 | 14104 ft | 372 kts | 101° |
| 2026-04-15 06:14 | 29.78494 | -94.77278 | 14597 ft | 376 kts | 102° |
| 2026-04-15 06:15 | 29.78030 | -94.74299 | 15107 ft | 379 kts | 102° |
| 2026-04-15 06:15 | 29.77562 | -94.71301 | 15635 ft | 382 kts | 102° |
| 2026-04-15 06:15 | 29.77107 | -94.68276 | 16148 ft | 386 kts | 101° |
| 2026-04-15 06:15 | 29.76658 | -94.65212 | 16636 ft | 390 kts | 101° |
| 2026-04-15 06:16 | 29.76360 | -94.63169 | 16953 ft | 393 kts | 102° |
| 2026-04-15 06:16 | 29.75904 | -94.60053 | 17439 ft | 397 kts | 102° |
| 2026-04-15 06:16 | 29.75443 | -94.56904 | 17931 ft | 400 kts | 102° |
| 2026-04-15 06:16 | 29.74976 | -94.53732 | 18366 ft | 405 kts | 102° |
| 2026-04-15 06:17 | 29.74500 | -94.50517 | 18755 ft | 409 kts | 102° |
| 2026-04-15 06:17 | 29.74021 | -94.47277 | 19197 ft | 411 kts | 102° |
| 2026-04-15 06:17 | 29.73539 | -94.44029 | 19639 ft | 414 kts | 102° |
| 2026-04-15 06:17 | 29.73052 | -94.40749 | 20059 ft | 417 kts | 102° |
| 2026-04-15 06:18 | 29.72561 | -94.37452 | 20485 ft | 420 kts | 102° |
| 2026-04-15 06:18 | 29.72065 | -94.34133 | 20902 ft | 423 kts | 102° |
| 2026-04-15 06:18 | 29.71629 | -94.30817 | 21308 ft | 426 kts | 100° |
| 2026-04-15 06:18 | 29.71256 | -94.27416 | 21709 ft | 429 kts | 99° |
| 2026-04-15 06:19 | 29.70901 | -94.23996 | 22124 ft | 432 kts | 99° |
| 2026-04-15 06:19 | 29.70539 | -94.20549 | 22531 ft | 435 kts | 99° |
| 2026-04-15 06:19 | 29.70164 | -94.17083 | 22946 ft | 437 kts | 99° |
| 2026-04-15 06:19 | 29.69780 | -94.13614 | 23413 ft | 438 kts | 99° |
| 2026-04-15 06:20 | 29.69387 | -94.10125 | 23786 ft | 441 kts | 99° |
| 2026-04-15 06:20 | 29.68990 | -94.06612 | 24102 ft | 444 kts | 99° |
| 2026-04-15 06:20 | 29.68605 | -94.03079 | 24434 ft | 447 kts | 97° |
| 2026-04-15 06:20 | 29.68423 | -93.99498 | 24762 ft | 451 kts | 93° |
| 2026-04-15 06:21 | 29.68391 | -93.95878 | 25119 ft | 453 kts | 91° |
| 2026-04-15 06:21 | 29.68415 | -93.92289 | 25458 ft | 456 kts | 91° |
| 2026-04-15 06:21 | 29.68444 | -93.88637 | 25796 ft | 459 kts | 91° |
| 2026-04-15 06:21 | 29.68459 | -93.84963 | 26131 ft | 461 kts | 92° |
| 2026-04-15 06:22 | 29.68455 | -93.81262 | 26475 ft | 463 kts | 92° |
| 2026-04-15 06:22 | 29.68434 | -93.77551 | 26818 ft | 465 kts | 92° |
| 2026-04-15 06:22 | 29.68403 | -93.73825 | 27157 ft | 467 kts | 92° |
| 2026-04-15 06:22 | 29.68364 | -93.70089 | 27466 ft | 470 kts | 92° |
| 2026-04-15 06:23 | 29.68322 | -93.66316 | 27769 ft | 472 kts | 92° |
| 2026-04-15 06:23 | 29.68279 | -93.62525 | 28068 ft | 475 kts | 92° |
| 2026-04-15 06:23 | 29.68234 | -93.58715 | 28383 ft | 477 kts | 92° |
| 2026-04-15 06:23 | 29.68189 | -93.54883 | 28692 ft | 480 kts | 92° |
| 2026-04-15 06:24 | 29.68143 | -93.51037 | 28997 ft | 482 kts | 92° |
| 2026-04-15 06:24 | 29.68096 | -93.47175 | 29295 ft | 485 kts | 92° |
| 2026-04-15 06:24 | 29.68048 | -93.43292 | 29584 ft | 487 kts | 92° |
| 2026-04-15 06:24 | 29.67998 | -93.39380 | 29878 ft | 489 kts | 92° |
| 2026-04-15 06:25 | 29.67948 | -93.35500 | 30157 ft | 492 kts | 92° |
| 2026-04-15 06:25 | 29.67896 | -93.31557 | 30401 ft | 494 kts | 92° |
| 2026-04-15 06:25 | 29.67842 | -93.27607 | 30699 ft | 494 kts | 92° |
| 2026-04-15 06:25 | 29.67788 | -93.23653 | 31072 ft | 493 kts | 92° |
| 2026-04-15 06:26 | 29.67732 | -93.19712 | 31452 ft | 492 kts | 92° |
| 2026-04-15 06:26 | 29.67676 | -93.15777 | 31769 ft | 492 kts | 92° |
| 2026-04-15 06:26 | 29.67617 | -93.11837 | 32076 ft | 493 kts | 92° |
| 2026-04-15 06:26 | 29.67558 | -93.07900 | 32389 ft | 493 kts | 92° |
| 2026-04-15 06:27 | 29.67497 | -93.03962 | 32702 ft | 492 kts | 92° |
| 2026-04-15 06:27 | 29.67436 | -93.00016 | 33047 ft | 492 kts | 92° |
| 2026-04-15 06:27 | 29.67373 | -92.96092 | 33361 ft | 491 kts | 92° |
| 2026-04-15 06:27 | 29.67309 | -92.92163 | 33651 ft | 492 kts | 92° |
| 2026-04-15 06:28 | 29.67244 | -92.88231 | 33956 ft | 492 kts | 92° |
| 2026-04-15 06:28 | 29.67178 | -92.84297 | 34243 ft | 491 kts | 92° |
| 2026-04-15 06:28 | 29.67111 | -92.80373 | 34488 ft | 491 kts | 92° |
| 2026-04-15 06:28 | 29.67043 | -92.76497 | 34721 ft | 491 kts | 92° |
| 2026-04-15 06:29 | 29.66974 | -92.72568 | 34974 ft | 491 kts | 92° |
| 2026-04-15 06:29 | 29.66903 | -92.68646 | 35120 ft | 492 kts | 92° |
| 2026-04-15 06:29 | 29.66831 | -92.64692 | 35099 ft | 494 kts | 92° |
| 2026-04-15 06:30 | 29.66683 | -92.56819 | 35099 ft | 490 kts | 92° |
| 2026-04-15 06:30 | 29.66533 | -92.49022 | 35110 ft | 487 kts | 92° |
| 2026-04-15 06:31 | 29.66379 | -92.41264 | 35109 ft | 485 kts | 92° |
| 2026-04-15 06:31 | 29.65781 | -92.33580 | 35115 ft | 481 kts | 104° |
| 2026-04-15 06:32 | 29.64184 | -92.26109 | 35109 ft | 481 kts | 106° |
| 2026-04-15 06:32 | 29.62490 | -92.18648 | 35112 ft | 483 kts | 105° |
| 2026-04-15 06:33 | 29.60868 | -92.11144 | 35121 ft | 485 kts | 105° |
| 2026-04-15 06:33 | 29.59290 | -92.03594 | 35111 ft | 487 kts | 105° |
| 2026-04-15 06:34 | 29.57726 | -91.96066 | 35115 ft | 488 kts | 105° |
| 2026-04-15 06:34 | 29.56141 | -91.88470 | 35106 ft | 489 kts | 104° |
| 2026-04-15 06:35 | 29.54547 | -91.80866 | 35118 ft | 489 kts | 105° |
| 2026-04-15 06:35 | 29.52946 | -91.73262 | 35114 ft | 489 kts | 105° |
| 2026-04-15 06:36 | 29.51356 | -91.65737 | 35108 ft | 487 kts | 104° |
| 2026-04-15 06:36 | 29.49757 | -91.58183 | 35112 ft | 486 kts | 104° |
| 2026-04-15 06:37 | 29.48157 | -91.50650 | 35108 ft | 485 kts | 104° |
| 2026-04-15 06:37 | 29.46557 | -91.43142 | 35114 ft | 484 kts | 104° |
| 2026-04-15 06:38 | 29.44957 | -91.35653 | 35118 ft | 483 kts | 104° |
| 2026-04-15 06:38 | 29.43355 | -91.28180 | 35105 ft | 482 kts | 104° |
| 2026-04-15 06:39 | 29.41750 | -91.20712 | 35107 ft | 481 kts | 104° |
| 2026-04-15 06:39 | 29.40150 | -91.13288 | 35117 ft | 481 kts | 104° |
| 2026-04-15 06:40 | 29.38539 | -91.05834 | 35117 ft | 481 kts | 104° |
| 2026-04-15 06:40 | 29.36923 | -90.98383 | 35114 ft | 482 kts | 104° |
| 2026-04-15 06:41 | 29.35301 | -90.90922 | 35126 ft | 482 kts | 105° |
| 2026-04-15 06:41 | 29.33675 | -90.83463 | 35126 ft | 483 kts | 105° |
| 2026-04-15 06:42 | 29.32052 | -90.76043 | 35118 ft | 483 kts | 105° |
| 2026-04-15 06:42 | 29.30412 | -90.68564 | 35128 ft | 483 kts | 104° |
| 2026-04-15 06:43 | 29.28769 | -90.61092 | 35130 ft | 484 kts | 105° |
| 2026-04-15 06:43 | 29.27119 | -90.53611 | 35128 ft | 484 kts | 105° |
| 2026-04-15 06:44 | 29.25466 | -90.46134 | 35136 ft | 484 kts | 105° |
| 2026-04-15 06:44 | 29.23819 | -90.38707 | 35128 ft | 484 kts | 105° |
| 2026-04-15 06:45 | 29.22151 | -90.31210 | 35136 ft | 484 kts | 104° |
| 2026-04-15 06:45 | 29.20496 | -90.23788 | 35133 ft | 483 kts | 105° |
| 2026-04-15 06:46 | 29.18829 | -90.16331 | 35131 ft | 483 kts | 105° |
| 2026-04-15 06:46 | 29.17058 | -90.08916 | 35123 ft | 482 kts | 111° |
| 2026-04-15 06:47 | 29.14474 | -90.01845 | 35122 ft | 481 kts | 115° |
| 2026-04-15 06:47 | 29.11754 | -89.94852 | 35121 ft | 481 kts | 115° |
| 2026-04-15 06:48 | 29.09067 | -89.87838 | 35120 ft | 481 kts | 114° |
| 2026-04-15 06:48 | 29.06436 | -89.80859 | 35120 ft | 481 kts | 114° |
| 2026-04-15 06:49 | 29.03800 | -89.73838 | 35120 ft | 481 kts | 114° |
| 2026-04-15 06:49 | 29.01162 | -89.66824 | 35119 ft | 481 kts | 114° |
| 2026-04-15 06:50 | 28.97190 | -89.56301 | 35119 ft | 481 kts | 114° |
| 2026-04-15 06:50 | 28.94537 | -89.49290 | 35118 ft | 481 kts | 114° |
| 2026-04-15 06:51 | 28.91884 | -89.42293 | 35124 ft | 481 kts | 114° |
| 2026-04-15 06:51 | 28.89224 | -89.35289 | 35123 ft | 481 kts | 114° |
| 2026-04-15 06:52 | 28.86559 | -89.28287 | 35123 ft | 481 kts | 114° |
| 2026-04-15 06:52 | 28.83910 | -89.21337 | 35127 ft | 481 kts | 114° |
| 2026-04-15 06:53 | 28.81238 | -89.14343 | 35125 ft | 481 kts | 114° |
| 2026-04-15 06:53 | 28.78563 | -89.07352 | 35124 ft | 481 kts | 114° |
| 2026-04-15 06:54 | 28.75881 | -89.00356 | 35126 ft | 481 kts | 114° |
| 2026-04-15 06:54 | 28.73200 | -88.93378 | 35124 ft | 481 kts | 114° |
| 2026-04-15 06:55 | 28.70514 | -88.86398 | 35125 ft | 481 kts | 114° |
| 2026-04-15 06:55 | 28.67826 | -88.79426 | 35126 ft | 480 kts | 114° |
| 2026-04-15 06:56 | 28.65151 | -88.72500 | 35125 ft | 480 kts | 114° |
| 2026-04-15 06:56 | 28.62458 | -88.65537 | 35130 ft | 480 kts | 114° |
| 2026-04-15 06:57 | 28.59761 | -88.58581 | 35130 ft | 480 kts | 114° |
| 2026-04-15 06:57 | 28.57061 | -88.51629 | 35128 ft | 480 kts | 114° |
| 2026-04-15 06:58 | 28.54361 | -88.44687 | 35134 ft | 480 kts | 114° |
| 2026-04-15 06:58 | 28.51657 | -88.37750 | 35128 ft | 479 kts | 114° |
| 2026-04-15 06:59 | 28.48952 | -88.30821 | 35130 ft | 479 kts | 114° |
| 2026-04-15 06:59 | 28.46264 | -88.23949 | 35131 ft | 479 kts | 114° |
| 2026-04-15 07:00 | 28.43554 | -88.17032 | 35130 ft | 479 kts | 114° |
| 2026-04-15 07:00 | 28.40844 | -88.10127 | 35139 ft | 478 kts | 114° |
| 2026-04-15 07:01 | 28.38142 | -88.03226 | 35137 ft | 478 kts | 112° |
| 2026-04-15 07:01 | 28.35936 | -87.96102 | 35143 ft | 478 kts | 107° |
| 2026-04-15 07:02 | 28.33953 | -87.88906 | 35135 ft | 478 kts | 107° |
| 2026-04-15 07:02 | 28.31941 | -87.81717 | 35141 ft | 478 kts | 108° |
| 2026-04-15 07:03 | 28.29882 | -87.74544 | 35138 ft | 478 kts | 108° |
| 2026-04-15 07:03 | 28.27814 | -87.67419 | 35142 ft | 478 kts | 108° |
| 2026-04-15 07:04 | 28.25727 | -87.60248 | 35137 ft | 478 kts | 108° |
| 2026-04-15 07:04 | 28.23640 | -87.53084 | 35135 ft | 478 kts | 108° |
| 2026-04-15 07:05 | 28.21547 | -87.45912 | 35136 ft | 479 kts | 108° |
| 2026-04-15 07:05 | 28.19806 | -87.39956 | 35136 ft | 479 kts | 108° |
| 2026-04-15 07:06 | 28.17708 | -87.32796 | 35141 ft | 479 kts | 108° |
| 2026-04-15 07:06 | 28.15263 | -87.24469 | 35139 ft | 479 kts | 108° |
| 2026-04-15 07:07 | 28.13496 | -87.18464 | 35140 ft | 479 kts | 108° |
| 2026-04-15 07:07 | 28.11399 | -87.11354 | 35139 ft | 479 kts | 108° |
| 2026-04-15 07:08 | 28.09281 | -87.04184 | 35142 ft | 479 kts | 108° |
| 2026-04-15 07:08 | 28.07160 | -86.97023 | 35140 ft | 479 kts | 108° |
| 2026-04-15 07:09 | 28.05033 | -86.89854 | 35142 ft | 480 kts | 108° |
| 2026-04-15 07:09 | 28.02906 | -86.82700 | 35136 ft | 480 kts | 108° |
| 2026-04-15 07:10 | 28.00775 | -86.75546 | 35137 ft | 479 kts | 108° |
| 2026-04-15 07:10 | 27.98689 | -86.68381 | 35141 ft | 479 kts | 107° |
| 2026-04-15 07:11 | 27.96639 | -86.61258 | 35143 ft | 479 kts | 107° |
| 2026-04-15 07:11 | 27.94570 | -86.54092 | 35141 ft | 479 kts | 107° |
| 2026-04-15 07:12 | 27.92490 | -86.46927 | 35140 ft | 479 kts | 107° |
| 2026-04-15 07:12 | 27.90407 | -86.39778 | 35139 ft | 479 kts | 107° |
| 2026-04-15 07:13 | 27.88319 | -86.32624 | 35139 ft | 479 kts | 108° |
| 2026-04-15 07:13 | 27.86243 | -86.25527 | 35140 ft | 478 kts | 108° |
| 2026-04-15 07:14 | 27.84150 | -86.18385 | 35143 ft | 478 kts | 108° |
| 2026-04-15 07:14 | 27.82054 | -86.11249 | 35147 ft | 478 kts | 108° |
| 2026-04-15 07:15 | 27.79956 | -86.04123 | 35143 ft | 478 kts | 108° |
| 2026-04-15 07:15 | 27.77855 | -85.97002 | 35142 ft | 478 kts | 108° |
| 2026-04-15 07:16 | 27.75751 | -85.89882 | 35143 ft | 478 kts | 108° |
| 2026-04-15 07:16 | 27.73640 | -85.82758 | 35145 ft | 477 kts | 108° |
| 2026-04-15 07:17 | 27.71543 | -85.75692 | 35145 ft | 477 kts | 108° |
| 2026-04-15 07:17 | 27.69430 | -85.68591 | 35143 ft | 477 kts | 108° |
| 2026-04-15 07:18 | 27.67313 | -85.61487 | 35141 ft | 477 kts | 108° |
| 2026-04-15 07:18 | 27.65192 | -85.54387 | 35142 ft | 477 kts | 108° |
| 2026-04-15 07:19 | 27.63069 | -85.47294 | 35140 ft | 477 kts | 108° |
| 2026-04-15 07:19 | 27.60943 | -85.40203 | 35152 ft | 478 kts | 108° |
| 2026-04-15 07:20 | 27.58883 | -85.33085 | 35140 ft | 477 kts | 102° |
| 2026-04-15 07:20 | 27.57629 | -85.25751 | 35144 ft | 476 kts | 98° |
| 2026-04-15 07:21 | 27.56451 | -85.18451 | 35144 ft | 476 kts | 99° |
| 2026-04-15 07:21 | 27.55169 | -85.11129 | 35144 ft | 476 kts | 100° |
| 2026-04-15 07:22 | 27.53886 | -85.03817 | 35147 ft | 476 kts | 100° |
| 2026-04-15 07:22 | 27.52604 | -84.96504 | 35146 ft | 475 kts | 99° |
| 2026-04-15 07:23 | 27.51320 | -84.89193 | 35143 ft | 475 kts | 100° |
| 2026-04-15 07:23 | 27.50035 | -84.81896 | 35146 ft | 474 kts | 100° |
| 2026-04-15 07:24 | 27.48751 | -84.74656 | 35143 ft | 474 kts | 100° |
| 2026-04-15 07:24 | 27.47445 | -84.67393 | 35144 ft | 473 kts | 100° |
| 2026-04-15 07:25 | 27.46134 | -84.60127 | 35148 ft | 472 kts | 100° |
| 2026-04-15 07:25 | 27.44823 | -84.52870 | 35145 ft | 472 kts | 100° |
| 2026-04-15 07:26 | 27.43513 | -84.45633 | 35146 ft | 471 kts | 100° |
| 2026-04-15 07:26 | 27.42199 | -84.38398 | 35149 ft | 471 kts | 100° |
| 2026-04-15 07:27 | 27.40895 | -84.31217 | 35150 ft | 471 kts | 100° |
| 2026-04-15 07:27 | 27.39584 | -84.24005 | 35154 ft | 470 kts | 100° |
| 2026-04-15 07:28 | 27.38270 | -84.16795 | 35146 ft | 470 kts | 100° |
| 2026-04-15 07:28 | 27.36950 | -84.09580 | 35149 ft | 470 kts | 100° |
| 2026-04-15 07:29 | 27.35627 | -84.02365 | 35147 ft | 470 kts | 100° |
| 2026-04-15 07:29 | 27.34309 | -83.95202 | 35145 ft | 470 kts | 100° |
| 2026-04-15 07:30 | 27.32978 | -83.87995 | 35159 ft | 470 kts | 100° |
| 2026-04-15 07:30 | 27.31646 | -83.80794 | 35146 ft | 470 kts | 100° |
| 2026-04-15 07:31 | 27.30310 | -83.73599 | 35151 ft | 470 kts | 100° |
| 2026-04-15 07:31 | 27.28971 | -83.66410 | 35145 ft | 469 kts | 100° |
| 2026-04-15 07:32 | 27.27630 | -83.59232 | 35147 ft | 469 kts | 100° |
| 2026-04-15 07:32 | 27.26294 | -83.52102 | 35163 ft | 469 kts | 100° |
| 2026-04-15 07:33 | 27.24944 | -83.44915 | 35148 ft | 468 kts | 100° |
| 2026-04-15 07:33 | 27.23594 | -83.37753 | 35152 ft | 468 kts | 100° |
| 2026-04-15 07:34 | 27.22251 | -83.30643 | 35149 ft | 468 kts | 100° |
| 2026-04-15 07:34 | 27.21571 | -83.27047 | 34703 ft | 476 kts | 100° |
| 2026-04-15 07:34 | 27.20879 | -83.23397 | 34027 ft | 478 kts | 100° |
| 2026-04-15 07:35 | 27.20185 | -83.19743 | 33188 ft | 479 kts | 100° |
| 2026-04-15 07:35 | 27.19485 | -83.16065 | 32364 ft | 480 kts | 100° |
| 2026-04-15 07:35 | 27.18789 | -83.12411 | 31716 ft | 476 kts | 100° |
| 2026-04-15 07:35 | 27.18097 | -83.08789 | 31149 ft | 471 kts | 100° |
| 2026-04-15 07:36 | 27.17422 | -83.05237 | 30938 ft | 458 kts | 100° |
| 2026-04-15 07:36 | 27.16768 | -83.01775 | 30682 ft | 448 kts | 100° |
| 2026-04-15 07:36 | 27.16134 | -82.98411 | 30485 ft | 444 kts | 100° |
| 2026-04-15 07:36 | 27.15494 | -82.95014 | 30271 ft | 445 kts | 100° |
| 2026-04-15 07:37 | 27.14850 | -82.91604 | 30022 ft | 448 kts | 100° |
| 2026-04-15 07:37 | 27.14203 | -82.88185 | 29772 ft | 446 kts | 100° |
| 2026-04-15 07:37 | 27.13557 | -82.84790 | 29543 ft | 443 kts | 100° |
| 2026-04-15 07:37 | 27.12777 | -82.81449 | 29309 ft | 442 kts | 107° |
| 2026-04-15 07:38 | 27.11749 | -82.78212 | 29103 ft | 440 kts | 109° |
| 2026-04-15 07:38 | 27.10703 | -82.74996 | 28888 ft | 437 kts | 108° |
| 2026-04-15 07:38 | 27.09692 | -82.71779 | 28656 ft | 435 kts | 107° |
| 2026-04-15 07:38 | 27.08723 | -82.68568 | 28459 ft | 433 kts | 107° |
| 2026-04-15 07:39 | 27.07775 | -82.65365 | 28245 ft | 432 kts | 107° |
| 2026-04-15 07:39 | 27.06832 | -82.62166 | 28032 ft | 431 kts | 107° |
| 2026-04-15 07:39 | 27.05890 | -82.58978 | 27818 ft | 430 kts | 107° |
| 2026-04-15 07:39 | 27.04946 | -82.55796 | 27598 ft | 429 kts | 107° |
| 2026-04-15 07:40 | 27.04001 | -82.52624 | 27403 ft | 428 kts | 107° |
| 2026-04-15 07:40 | 27.03067 | -82.49499 | 27188 ft | 427 kts | 107° |
| 2026-04-15 07:40 | 27.02122 | -82.46338 | 26977 ft | 427 kts | 107° |
| 2026-04-15 07:40 | 27.01176 | -82.43179 | 26767 ft | 426 kts | 107° |
| 2026-04-15 07:41 | 27.00232 | -82.40029 | 26553 ft | 426 kts | 107° |
| 2026-04-15 07:41 | 26.99288 | -82.36879 | 26356 ft | 425 kts | 107° |
| 2026-04-15 07:41 | 26.98345 | -82.33740 | 26134 ft | 423 kts | 107° |
| 2026-04-15 07:41 | 26.97393 | -82.30622 | 25924 ft | 422 kts | 109° |
| 2026-04-15 07:42 | 26.96327 | -82.27558 | 25717 ft | 421 kts | 111° |
| 2026-04-15 07:42 | 26.95200 | -82.24529 | 25511 ft | 419 kts | 111° |
| 2026-04-15 07:42 | 26.94082 | -82.21563 | 25317 ft | 418 kts | 111° |
| 2026-04-15 07:42 | 26.92961 | -82.18563 | 25107 ft | 416 kts | 111° |
| 2026-04-15 07:43 | 26.91858 | -82.15578 | 24903 ft | 414 kts | 111° |
| 2026-04-15 07:43 | 26.90766 | -82.12599 | 24699 ft | 413 kts | 111° |
| 2026-04-15 07:43 | 26.89681 | -82.09631 | 24497 ft | 411 kts | 111° |
| 2026-04-15 07:43 | 26.88598 | -82.06671 | 24294 ft | 410 kts | 111° |
| 2026-04-15 07:44 | 26.87514 | -82.03710 | 23967 ft | 412 kts | 111° |
| 2026-04-15 07:44 | 26.86421 | -82.00732 | 23575 ft | 410 kts | 111° |
| 2026-04-15 07:44 | 26.85341 | -81.97792 | 23160 ft | 406 kts | 111° |
| 2026-04-15 07:44 | 26.84275 | -81.94888 | 22782 ft | 401 kts | 111° |
| 2026-04-15 07:45 | 26.83233 | -81.92053 | 22422 ft | 397 kts | 111° |
| 2026-04-15 07:45 | 26.82187 | -81.89211 | 22107 ft | 392 kts | 111° |
| 2026-04-15 07:45 | 26.81155 | -81.86409 | 21917 ft | 389 kts | 111° |
| 2026-04-15 07:45 | 26.80119 | -81.83599 | 21721 ft | 392 kts | 111° |
| 2026-04-15 07:46 | 26.79072 | -81.80759 | 21517 ft | 396 kts | 111° |
| 2026-04-15 07:46 | 26.78021 | -81.77911 | 21305 ft | 394 kts | 111° |
| 2026-04-15 07:46 | 26.76976 | -81.75081 | 21093 ft | 392 kts | 111° |
| 2026-04-15 07:46 | 26.75935 | -81.72265 | 20888 ft | 391 kts | 111° |
| 2026-04-15 07:47 | 26.74899 | -81.69462 | 20683 ft | 389 kts | 111° |
| 2026-04-15 07:47 | 26.73862 | -81.66660 | 20475 ft | 388 kts | 111° |
| 2026-04-15 07:47 | 26.72829 | -81.63869 | 20274 ft | 387 kts | 111° |
| 2026-04-15 07:47 | 26.71801 | -81.61092 | 20073 ft | 386 kts | 111° |
| 2026-04-15 07:48 | 26.70773 | -81.58317 | 19870 ft | 385 kts | 111° |
| 2026-04-15 07:48 | 26.69759 | -81.55584 | 19675 ft | 385 kts | 111° |
| 2026-04-15 07:48 | 26.68733 | -81.52822 | 19474 ft | 384 kts | 111° |
| 2026-04-15 07:48 | 26.67847 | -81.50012 | 19241 ft | 382 kts | 98° |
| 2026-04-15 07:49 | 26.67790 | -81.47057 | 18872 ft | 383 kts | 79° |
| 2026-04-15 07:49 | 26.68414 | -81.44169 | 18421 ft | 381 kts | 73° |
| 2026-04-15 07:49 | 26.69122 | -81.41301 | 17788 ft | 382 kts | 73° |
| 2026-04-15 07:49 | 26.69827 | -81.38456 | 17314 ft | 378 kts | 73° |
| 2026-04-15 07:50 | 26.70514 | -81.35631 | 16854 ft | 373 kts | 73° |
| 2026-04-15 07:50 | 26.71180 | -81.32835 | 16413 ft | 369 kts | 74° |
| 2026-04-15 07:50 | 26.71829 | -81.30079 | 15981 ft | 365 kts | 74° |
| 2026-04-15 07:50 | 26.72470 | -81.27343 | 15566 ft | 361 kts | 74° |
| 2026-04-15 07:51 | 26.73102 | -81.24637 | 15146 ft | 358 kts | 74° |
| 2026-04-15 07:51 | 26.73728 | -81.21958 | 14785 ft | 353 kts | 74° |
| 2026-04-15 07:51 | 26.74334 | -81.19356 | 14456 ft | 348 kts | 74° |
| 2026-04-15 07:51 | 26.74943 | -81.16742 | 14122 ft | 345 kts | 74° |
| 2026-04-15 07:52 | 26.75546 | -81.14153 | 13772 ft | 342 kts | 74° |
| 2026-04-15 07:52 | 26.76144 | -81.11586 | 13419 ft | 340 kts | 74° |
| 2026-04-15 07:52 | 26.76736 | -81.09036 | 13089 ft | 337 kts | 74° |
| 2026-04-15 07:52 | 26.77327 | -81.06496 | 12765 ft | 337 kts | 74° |
| 2026-04-15 07:53 | 26.77916 | -81.03958 | 12446 ft | 338 kts | 74° |
| 2026-04-15 07:53 | 26.78507 | -81.01405 | 12128 ft | 340 kts | 75° |
| 2026-04-15 07:53 | 26.78904 | -80.98790 | 11797 ft | 341 kts | 84° |
| 2026-04-15 07:53 | 26.79017 | -80.96143 | 11482 ft | 340 kts | 87° |
| 2026-04-15 07:54 | 26.79070 | -80.93534 | 11162 ft | 339 kts | 88° |
| 2026-04-15 07:54 | 26.79132 | -80.90916 | 10844 ft | 334 kts | 87° |
| 2026-04-15 07:54 | 26.79217 | -80.88343 | 10523 ft | 328 kts | 86° |
| 2026-04-15 07:54 | 26.79319 | -80.85806 | 10210 ft | 323 kts | 86° |
| 2026-04-15 07:55 | 26.79426 | -80.83311 | 9932 ft | 317 kts | 87° |
| 2026-04-15 07:55 | 26.79529 | -80.80911 | 9941 ft | 301 kts | 87° |
| 2026-04-15 07:55 | 26.79677 | -80.77140 | 9824 ft | 282 kts | 89° |
| 2026-04-15 07:56 | 26.79382 | -80.75000 | 9556 ft | 278 kts | 109° |
| 2026-04-15 07:56 | 26.78699 | -80.72990 | 9270 ft | 276 kts | 110° |
| 2026-04-15 07:56 | 26.78012 | -80.70996 | 8999 ft | 272 kts | 110° |
| 2026-04-15 07:56 | 26.77336 | -80.69016 | 8657 ft | 273 kts | 110° |
| 2026-04-15 07:57 | 26.76667 | -80.67034 | 8364 ft | 271 kts | 110° |
| 2026-04-15 07:57 | 26.76010 | -80.65068 | 8072 ft | 269 kts | 109° |
| 2026-04-15 07:57 | 26.75358 | -80.63113 | 7773 ft | 268 kts | 109° |
| 2026-04-15 07:57 | 26.74718 | -80.61190 | 7504 ft | 266 kts | 109° |
| 2026-04-15 07:58 | 26.74073 | -80.59253 | 7214 ft | 264 kts | 109° |
| 2026-04-15 07:58 | 26.73418 | -80.57332 | 6934 ft | 263 kts | 110° |
| 2026-04-15 07:58 | 26.72754 | -80.55433 | 6656 ft | 262 kts | 110° |
| 2026-04-15 07:58 | 26.72091 | -80.53543 | 6374 ft | 260 kts | 110° |
| 2026-04-15 07:59 | 26.71435 | -80.51671 | 6117 ft | 257 kts | 110° |
| 2026-04-15 07:59 | 26.70786 | -80.49817 | 5805 ft | 256 kts | 110° |
| 2026-04-15 07:59 | 26.70148 | -80.47954 | 5491 ft | 256 kts | 107° |
| 2026-04-15 07:59 | 26.69894 | -80.46003 | 5232 ft | 252 kts | 91° |
| 2026-04-15 08:00 | 26.69832 | -80.44101 | 5198 ft | 237 kts | 92° |
| 2026-04-15 08:00 | 26.69752 | -80.42315 | 5074 ft | 224 kts | 93° |
| 2026-04-15 08:00 | 26.69665 | -80.40614 | 4770 ft | 220 kts | 93° |
| 2026-04-15 08:00 | 26.69573 | -80.38911 | 4423 ft | 219 kts | 93° |
| 2026-04-15 08:01 | 26.69480 | -80.37218 | 4066 ft | 217 kts | 93° |
| 2026-04-15 08:01 | 26.69386 | -80.35542 | 3745 ft | 215 kts | 93° |
| 2026-04-15 08:01 | 26.69311 | -80.33885 | 3457 ft | 211 kts | 92° |
| 2026-04-15 08:01 | 26.69262 | -80.32276 | 3228 ft | 202 kts | 92° |
| 2026-04-15 08:02 | 26.69203 | -80.30752 | 3029 ft | 191 kts | 93° |
| 2026-04-15 08:02 | 26.69139 | -80.29284 | 2847 ft | 189 kts | 93° |
| 2026-04-15 08:02 | 26.69073 | -80.27823 | 2682 ft | 187 kts | 93° |
| 2026-04-15 08:02 | 26.69008 | -80.26383 | 2515 ft | 182 kts | 93° |
| 2026-04-15 08:03 | 26.68947 | -80.25017 | 2347 ft | 170 kts | 93° |
| 2026-04-15 08:03 | 26.68890 | -80.23741 | 2199 ft | 165 kts | 93° |
| 2026-04-15 08:03 | 26.68834 | -80.22470 | 2102 ft | 161 kts | 93° |
| 2026-04-15 08:03 | 26.68777 | -80.21214 | 1901 ft | 159 kts | 93° |
| 2026-04-15 08:04 | 26.68726 | -80.20040 | 1712 ft | 144 kts | 93° |
| 2026-04-15 08:04 | 26.68677 | -80.18940 | 1528 ft | 142 kts | 93° |
| 2026-04-15 08:04 | 26.68628 | -80.17836 | 1329 ft | 141 kts | 93° |
| 2026-04-15 08:04 | 26.68580 | -80.16750 | 1142 ft | 138 kts | 93° |
| 2026-04-15 08:05 | 26.68533 | -80.15683 | 963 ft | 136 kts | 93° |
| 2026-04-15 08:05 | 26.68487 | -80.14621 | 774 ft | 138 kts | 93° |
| 2026-04-15 08:05 | 26.68438 | -80.13529 | 595 ft | 141 kts | 94° |
| 2026-04-15 08:05 | 26.68391 | -80.12456 | 410 ft | 138 kts | 95° |
| 2026-04-15 08:06 | 26.68346 | -80.11397 | 220 ft | 135 kts | 95° |
| 2026-04-15 08:06 | 26.68301 | -80.10346 | 25 ft | 136 kts | 96° |
| 2026-04-15 08:06 | 26.68262 | -80.09478 | 23 ft | 81 kts | 93° |
| 2026-04-15 08:06 | 26.68244 | -80.09077 | 21 ft | 33 kts | 93° |
| 2026-04-15 08:07 | 26.68249 | -80.08866 | 21 ft | 15 kts | 51° |
| 2026-04-15 08:07 | 26.68320 | -80.08845 | 21 ft | 0 kts | 2° |
| 2026-04-15 08:07 | 26.68323 | -80.08845 | 23 ft | 1 kts | 358° |
| 2026-04-15 08:07 | 26.68340 | -80.08861 | 21 ft | 7 kts | 304° |
| 2026-04-15 08:08 | 26.68349 | -80.08949 | 21 ft | 16 kts | 272° |
| 2026-04-15 08:08 | 26.68356 | -80.09100 | 21 ft | 22 kts | 273° |
| 2026-04-15 08:08 | 26.68363 | -80.09276 | 21 ft | 23 kts | 273° |
| 2026-04-15 08:08 | 26.68445 | -80.09384 | 22 ft | 16 kts | 360° |
| 2026-04-15 08:09 | 26.68524 | -80.09311 | 21 ft | 15 kts | 47° |
| 2026-04-15 08:09 | 26.68590 | -80.09229 | 22 ft | 14 kts | 49° |
| 2026-04-15 08:09 | 26.68643 | -80.09206 | 21 ft | 8 kts | 321° |
| 2026-04-15 08:09 | 26.68682 | -80.09241 | 21 ft | 4 kts | 318° |
| 2026-04-15 08:10 | 26.68685 | -80.09244 | 21 ft | 0 kts | 318° |